sensor_id;sensor_type;location;lat;lon;timestamp;P1;P2;P0
76101;PMS7003;64830;46.910;6.354;2023-02-15T00:01:29;11.00;11.00;8.00
76101;PMS7003;64830;46.910;6.354;2023-02-15T00:03:55;12.00;11.00;8.00
76101;PMS7003;64830;46.910;6.354;2023-02-15T00:06:20;18.25;15.00;8.00
76101;PMS7003;64830;46.910;6.354;2023-02-15T00:08:46;11.50;11.25;8.25
76101;PMS7003;64830;46.910;6.354;2023-02-15T00:11:13;11.00;8.75;7.00
76101;PMS7003;64830;46.910;6.354;2023-02-15T00:13:40;11.25;11.00;7.00
76101;PMS7003;64830;46.910;6.354;2023-02-15T00:16:09;14.00;9.50;7.75
76101;PMS7003;64830;46.910;6.354;2023-02-15T00:18:37;12.75;12.75;10.50
76101;PMS7003;64830;46.910;6.354;2023-02-15T00:21:08;17.50;13.50;8.50
76101;PMS7003;64830;46.910;6.354;2023-02-15T00:23:35;8.25;7.75;5.75
76101;PMS7003;64830;46.910;6.354;2023-02-15T00:26:08;11.75;10.75;7.75
76101;PMS7003;64830;46.910;6.354;2023-02-15T00:28:35;10.25;9.25;7.00
76101;PMS7003;64830;46.910;6.354;2023-02-15T00:31:07;4.75;4.00;3.00
76101;PMS7003;64830;46.910;6.354;2023-02-15T00:33:35;8.00;8.00;5.00
76101;PMS7003;64830;46.910;6.354;2023-02-15T00:36:02;11.25;8.75;5.00
76101;PMS7003;64830;46.910;6.354;2023-02-15T00:38:29;8.25;5.00;4.75
76101;PMS7003;64830;46.910;6.354;2023-02-15T00:40:56;4.25;4.25;2.00
76101;PMS7003;64830;46.910;6.354;2023-02-15T00:43:23;7.00;7.00;4.25
76101;PMS7003;64830;46.910;6.354;2023-02-15T00:45:49;5.50;5.50;2.00
76101;PMS7003;64830;46.910;6.354;2023-02-15T00:48:14;4.25;4.00;2.00
76101;PMS7003;64830;46.910;6.354;2023-02-15T00:50:40;7.50;7.00;4.25
76101;PMS7003;64830;46.910;6.354;2023-02-15T00:53:05;4.75;4.50;4.00
76101;PMS7003;64830;46.910;6.354;2023-02-15T00:55:32;7.50;5.50;4.00
76101;PMS7003;64830;46.910;6.354;2023-02-15T00:57:58;6.50;6.50;5.00
76101;PMS7003;64830;46.910;6.354;2023-02-15T01:00:23;8.75;7.00;5.00
76101;PMS7003;64830;46.910;6.354;2023-02-15T01:02:49;7.00;7.00;5.00
76101;PMS7003;64830;46.910;6.354;2023-02-15T01:05:14;8.25;6.50;5.00
76101;PMS7003;64830;46.910;6.354;2023-02-15T01:07:40;10.75;7.00;4.00
76101;PMS7003;64830;46.910;6.354;2023-02-15T01:10:06;8.00;7.50;4.75
76101;PMS7003;64830;46.910;6.354;2023-02-15T01:12:32;7.75;5.00;4.00
76101;PMS7003;64830;46.910;6.354;2023-02-15T01:14:58;7.25;7.25;5.00
76101;PMS7003;64830;46.910;6.354;2023-02-15T01:17:23;8.75;7.25;5.50
76101;PMS7003;64830;46.910;6.354;2023-02-15T01:19:48;11.00;7.25;5.00
76101;PMS7003;64830;46.910;6.354;2023-02-15T01:22:14;6.25;2.00;1.00
76101;PMS7003;64830;46.910;6.354;2023-02-15T01:24:39;6.75;6.75;4.50
76101;PMS7003;64830;46.910;6.354;2023-02-15T01:27:05;7.00;7.00;4.50
76101;PMS7003;64830;46.910;6.354;2023-02-15T01:29:30;6.75;5.50;4.25
76101;PMS7003;64830;46.910;6.354;2023-02-15T01:31:55;4.00;4.00;4.00
76101;PMS7003;64830;46.910;6.354;2023-02-15T01:34:21;7.25;6.50;4.75
76101;PMS7003;64830;46.910;6.354;2023-02-15T01:36:46;11.25;7.50;4.75
76101;PMS7003;64830;46.910;6.354;2023-02-15T01:39:12;7.75;7.50;4.75
76101;PMS7003;64830;46.910;6.354;2023-02-15T01:41:37;4.50;3.00;2.00
76101;PMS7003;64830;46.910;6.354;2023-02-15T01:44:02;5.50;5.50;4.25
76101;PMS7003;64830;46.910;6.354;2023-02-15T01:46:35;8.75;8.25;4.75
76101;PMS7003;64830;46.910;6.354;2023-02-15T01:49:24;8.00;6.50;5.50
76101;PMS7003;64830;46.910;6.354;2023-02-15T01:51:52;8.50;8.00;5.00
76101;PMS7003;64830;46.910;6.354;2023-02-15T01:54:22;7.75;7.75;5.50
76101;PMS7003;64830;46.910;6.354;2023-02-15T01:56:51;5.50;4.50;3.50
76101;PMS7003;64830;46.910;6.354;2023-02-15T01:59:21;8.00;6.00;5.00
76101;PMS7003;64830;46.910;6.354;2023-02-15T02:01:48;6.00;6.00;5.25
76101;PMS7003;64830;46.910;6.354;2023-02-15T02:04:17;9.25;7.50;7.00
76101;PMS7003;64830;46.910;6.354;2023-02-15T02:06:46;13.00;8.00;7.00
76101;PMS7003;64830;46.910;6.354;2023-02-15T02:09:14;11.50;9.00;7.75
76101;PMS7003;64830;46.910;6.354;2023-02-15T02:11:39;11.50;7.50;5.00
76101;PMS7003;64830;46.910;6.354;2023-02-15T02:14:06;9.75;7.50;7.00
76101;PMS7003;64830;46.910;6.354;2023-02-15T02:33:08;9.50;5.00;4.00
76101;PMS7003;64830;46.910;6.354;2023-02-15T02:47:09;8.00;7.00;5.00
76101;PMS7003;64830;46.910;6.354;2023-02-15T02:49:41;8.00;8.00;7.25
76101;PMS7003;64830;46.910;6.354;2023-02-15T02:54:58;4.50;4.50;4.00
76101;PMS7003;64830;46.910;6.354;2023-02-15T02:57:25;1.00;1.00;0.00
76101;PMS7003;64830;46.910;6.354;2023-02-15T02:59:52;7.50;5.00;4.00
76101;PMS7003;64830;46.910;6.354;2023-02-15T03:02:21;8.75;8.75;7.00
76101;PMS7003;64830;46.910;6.354;2023-02-15T03:04:55;5.00;4.25;3.50
76101;PMS7003;64830;46.910;6.354;2023-02-15T03:07:31;10.25;7.00;5.00
76101;PMS7003;64830;46.910;6.354;2023-02-15T03:09:58;10.00;7.75;7.25
76101;PMS7003;64830;46.910;6.354;2023-02-15T03:12:30;11.75;10.50;8.00
76101;PMS7003;64830;46.910;6.354;2023-02-15T03:17:50;7.25;7.25;5.00
76101;PMS7003;64830;46.910;6.354;2023-02-15T03:20:22;15.25;10.00;7.75
76101;PMS7003;64830;46.910;6.354;2023-02-15T03:22:51;10.25;8.50;6.00
76101;PMS7003;64830;46.910;6.354;2023-02-15T03:25:21;8.50;7.00;5.00
76101;PMS7003;64830;46.910;6.354;2023-02-15T03:28:01;11.50;10.50;8.00
76101;PMS7003;64830;46.910;6.354;2023-02-15T03:30:31;13.00;9.50;6.00
76101;PMS7003;64830;46.910;6.354;2023-02-15T03:32:59;5.50;4.25;2.00
76101;PMS7003;64830;46.910;6.354;2023-02-15T03:35:31;12.50;10.00;8.00
76101;PMS7003;64830;46.910;6.354;2023-02-15T03:38:04;8.50;5.50;5.00
76101;PMS7003;64830;46.910;6.354;2023-02-15T03:40:43;10.50;8.50;7.00
76101;PMS7003;64830;46.910;6.354;2023-02-15T03:43:49;10.75;9.50;8.25
76101;PMS7003;64830;46.910;6.354;2023-02-15T03:49:03;10.25;10.25;8.00
76101;PMS7003;64830;46.910;6.354;2023-02-15T03:51:35;8.00;8.00;7.25
76101;PMS7003;64830;46.910;6.354;2023-02-15T03:56:34;10.25;9.00;7.00
76101;PMS7003;64830;46.910;6.354;2023-02-15T03:59:02;10.75;10.00;8.00
76101;PMS7003;64830;46.910;6.354;2023-02-15T04:01:48;12.50;10.00;7.50
76101;PMS7003;64830;46.910;6.354;2023-02-15T04:04:45;10.25;10.25;7.00
76101;PMS7003;64830;46.910;6.354;2023-02-15T04:07:11;9.50;7.75;6.50
76101;PMS7003;64830;46.910;6.354;2023-02-15T04:09:37;11.00;8.00;7.00
76101;PMS7003;64830;46.910;6.354;2023-02-15T04:12:21;7.75;6.00;4.75
76101;PMS7003;64830;46.910;6.354;2023-02-15T04:14:47;9.25;9.25;7.00
76101;PMS7003;64830;46.910;6.354;2023-02-15T04:17:31;8.50;8.00;7.00
76101;PMS7003;64830;46.910;6.354;2023-02-15T04:19:56;10.00;9.50;7.00
76101;PMS7003;64830;46.910;6.354;2023-02-15T04:22:40;8.25;8.25;6.00
76101;PMS7003;64830;46.910;6.354;2023-02-15T04:25:24;9.00;9.00;7.50
76101;PMS7003;64830;46.910;6.354;2023-02-15T04:27:50;9.50;7.25;6.00
76101;PMS7003;64830;46.910;6.354;2023-02-15T04:30:18;7.50;6.00;5.00
76101;PMS7003;64830;46.910;6.354;2023-02-15T04:32:46;1.25;1.25;0.50
76101;PMS7003;64830;46.910;6.354;2023-02-15T04:35:12;11.00;10.00;8.00
76101;PMS7003;64830;46.910;6.354;2023-02-15T04:37:38;11.25;9.50;5.50
76101;PMS7003;64830;46.910;6.354;2023-02-15T04:40:08;7.25;7.25;5.50
76101;PMS7003;64830;46.910;6.354;2023-02-15T04:42:36;10.00;10.00;5.00
76101;PMS7003;64830;46.910;6.354;2023-02-15T04:45:01;10.50;7.50;5.00
76101;PMS7003;64830;46.910;6.354;2023-02-15T04:47:27;8.50;7.25;6.00
76101;PMS7003;64830;46.910;6.354;2023-02-15T04:49:52;6.00;5.00;4.00
76101;PMS7003;64830;46.910;6.354;2023-02-15T04:52:18;10.25;8.00;4.50
76101;PMS7003;64830;46.910;6.354;2023-02-15T04:54:43;9.00;7.00;5.00
76101;PMS7003;64830;46.910;6.354;2023-02-15T04:57:09;7.00;7.00;6.00
76101;PMS7003;64830;46.910;6.354;2023-02-15T04:59:35;8.00;8.00;5.00
76101;PMS7003;64830;46.910;6.354;2023-02-15T05:02:00;7.25;6.75;4.50
76101;PMS7003;64830;46.910;6.354;2023-02-15T05:04:26;9.50;8.50;6.00
76101;PMS7003;64830;46.910;6.354;2023-02-15T05:06:51;7.75;7.00;5.50
76101;PMS7003;64830;46.910;6.354;2023-02-15T05:09:16;11.25;7.50;5.50
76101;PMS7003;64830;46.910;6.354;2023-02-15T05:11:42;10.75;7.50;5.00
76101;PMS7003;64830;46.910;6.354;2023-02-15T05:14:07;8.50;7.00;7.00
76101;PMS7003;64830;46.910;6.354;2023-02-15T05:16:33;8.50;8.25;6.25
76101;PMS7003;64830;46.910;6.354;2023-02-15T05:18:59;5.00;5.00;4.50
76101;PMS7003;64830;46.910;6.354;2023-02-15T05:21:25;10.25;8.00;7.00
76101;PMS7003;64830;46.910;6.354;2023-02-15T05:23:50;10.75;7.50;5.00
76101;PMS7003;64830;46.910;6.354;2023-02-15T05:26:21;7.00;6.00;5.00
76101;PMS7003;64830;46.910;6.354;2023-02-15T05:29:07;12.25;8.25;6.25
76101;PMS7003;64830;46.910;6.354;2023-02-15T05:31:33;5.25;5.25;4.25
76101;PMS7003;64830;46.910;6.354;2023-02-15T05:33:59;8.50;8.50;6.00
76101;PMS7003;64830;46.910;6.354;2023-02-15T05:36:24;10.00;10.00;8.00
76101;PMS7003;64830;46.910;6.354;2023-02-15T05:38:49;7.50;5.25;2.50
76101;PMS7003;64830;46.910;6.354;2023-02-15T05:41:15;8.00;8.00;7.50
76101;PMS7003;64830;46.910;6.354;2023-02-15T05:43:41;7.25;7.25;5.00
76101;PMS7003;64830;46.910;6.354;2023-02-15T05:46:07;7.00;5.25;2.00
76101;PMS7003;64830;46.910;6.354;2023-02-15T05:48:33;10.75;7.25;4.50
76101;PMS7003;64830;46.910;6.354;2023-02-15T05:51:00;8.25;5.25;4.50
76101;PMS7003;64830;46.910;6.354;2023-02-15T05:53:27;9.50;8.00;7.00
76101;PMS7003;64830;46.910;6.354;2023-02-15T05:55:53;10.25;8.00;7.00
76101;PMS7003;64830;46.910;6.354;2023-02-15T05:58:23;7.50;6.75;5.00
76101;PMS7003;64830;46.910;6.354;2023-02-15T06:00:49;8.75;8.25;8.00
76101;PMS7003;64830;46.910;6.354;2023-02-15T06:03:15;11.25;10.25;9.50
76101;PMS7003;64830;46.910;6.354;2023-02-15T06:05:40;14.50;7.75;5.25
76101;PMS7003;64830;46.910;6.354;2023-02-15T06:08:05;9.00;8.25;7.00
76101;PMS7003;64830;46.910;6.354;2023-02-15T06:10:31;13.75;11.25;10.00
76101;PMS7003;64830;46.910;6.354;2023-02-15T06:12:56;8.00;8.00;7.00
76101;PMS7003;64830;46.910;6.354;2023-02-15T06:15:21;11.75;11.75;8.75
76101;PMS7003;64830;46.910;6.354;2023-02-15T06:17:47;11.00;8.25;7.00
76101;PMS7003;64830;46.910;6.354;2023-02-15T06:20:12;15.25;13.50;7.75
76101;PMS7003;64830;46.910;6.354;2023-02-15T06:22:38;11.00;9.25;7.00
76101;PMS7003;64830;46.910;6.354;2023-02-15T06:25:03;10.50;10.00;8.00
76101;PMS7003;64830;46.910;6.354;2023-02-15T06:27:29;15.00;11.25;8.25
76101;PMS7003;64830;46.910;6.354;2023-02-15T06:29:54;11.25;10.50;8.25
76101;PMS7003;64830;46.910;6.354;2023-02-15T06:32:20;11.25;11.25;7.75
76101;PMS7003;64830;46.910;6.354;2023-02-15T06:34:45;7.75;7.75;5.75
76101;PMS7003;64830;46.910;6.354;2023-02-15T06:37:10;13.00;9.50;7.50
76101;PMS7003;64830;46.910;6.354;2023-02-15T06:39:36;7.75;7.00;6.75
76101;PMS7003;64830;46.910;6.354;2023-02-15T06:42:02;9.50;7.50;6.50
76101;PMS7003;64830;46.910;6.354;2023-02-15T06:44:27;13.00;9.75;7.00
76101;PMS7003;64830;46.910;6.354;2023-02-15T06:46:53;6.50;4.50;4.50
76101;PMS7003;64830;46.910;6.354;2023-02-15T06:49:18;15.00;11.50;8.50
76101;PMS7003;64830;46.910;6.354;2023-02-15T06:51:44;9.50;7.00;4.00
76101;PMS7003;64830;46.910;6.354;2023-02-15T06:54:10;11.50;9.00;6.00
76101;PMS7003;64830;46.910;6.354;2023-02-15T06:56:35;11.25;11.25;9.75
76101;PMS7003;64830;46.910;6.354;2023-02-15T06:59:01;8.25;7.00;5.00
76101;PMS7003;64830;46.910;6.354;2023-02-15T07:01:26;11.50;10.00;8.25
76101;PMS7003;64830;46.910;6.354;2023-02-15T07:03:51;10.00;7.75;7.25
76101;PMS7003;64830;46.910;6.354;2023-02-15T07:06:17;10.00;7.75;5.00
76101;PMS7003;64830;46.910;6.354;2023-02-15T07:08:42;9.50;8.50;6.50
76101;PMS7003;64830;46.910;6.354;2023-02-15T07:11:07;20.00;10.25;9.00
76101;PMS7003;64830;46.910;6.354;2023-02-15T07:13:52;13.75;11.25;8.50
76101;PMS7003;64830;46.910;6.354;2023-02-15T07:16:18;8.50;7.00;5.25
76101;PMS7003;64830;46.910;6.354;2023-02-15T07:18:44;10.75;10.75;9.50
76101;PMS7003;64830;46.910;6.354;2023-02-15T07:21:09;14.75;13.25;8.75
76101;PMS7003;64830;46.910;6.354;2023-02-15T07:23:35;16.50;11.00;9.50
76101;PMS7003;64830;46.910;6.354;2023-02-15T07:26:02;7.00;5.25;4.00
76101;PMS7003;64830;46.910;6.354;2023-02-15T07:28:29;16.75;14.25;11.00
76101;PMS7003;64830;46.910;6.354;2023-02-15T07:30:54;18.00;11.50;10.25
76101;PMS7003;64830;46.910;6.354;2023-02-15T07:33:20;13.50;12.50;9.50
76101;PMS7003;64830;46.910;6.354;2023-02-15T07:35:48;23.25;16.25;11.00
76101;PMS7003;64830;46.910;6.354;2023-02-15T07:38:19;22.25;21.00;14.25
76101;PMS7003;64830;46.910;6.354;2023-02-15T07:40:45;19.50;19.25;14.00
76101;PMS7003;64830;46.910;6.354;2023-02-15T07:43:10;21.25;19.75;13.00
76101;PMS7003;64830;46.910;6.354;2023-02-15T07:45:36;16.50;14.00;10.00
76101;PMS7003;64830;46.910;6.354;2023-02-15T07:48:02;16.25;15.75;11.00
76101;PMS7003;64830;46.910;6.354;2023-02-15T07:50:28;14.00;14.00;13.00
76101;PMS7003;64830;46.910;6.354;2023-02-15T07:52:54;17.25;10.25;8.50
76101;PMS7003;64830;46.910;6.354;2023-02-15T07:55:19;11.50;10.25;7.00
76101;PMS7003;64830;46.910;6.354;2023-02-15T07:57:45;8.00;7.25;6.00
76101;PMS7003;64830;46.910;6.354;2023-02-15T08:00:13;10.25;9.00;6.00
76101;PMS7003;64830;46.910;6.354;2023-02-15T08:02:40;9.75;9.25;7.50
76101;PMS7003;64830;46.910;6.354;2023-02-15T08:05:06;8.75;7.50;4.50
76101;PMS7003;64830;46.910;6.354;2023-02-15T08:07:32;10.00;10.00;5.00
76101;PMS7003;64830;46.910;6.354;2023-02-15T08:09:57;14.25;10.75;8.00
76101;PMS7003;64830;46.910;6.354;2023-02-15T08:12:25;13.00;11.75;9.25
76101;PMS7003;64830;46.910;6.354;2023-02-15T08:14:51;17.00;13.75;8.00
76101;PMS7003;64830;46.910;6.354;2023-02-15T08:17:17;14.25;11.75;9.25
76101;PMS7003;64830;46.910;6.354;2023-02-15T08:19:43;18.75;16.25;11.75
76101;PMS7003;64830;46.910;6.354;2023-02-15T08:22:10;12.75;12.00;9.25
76101;PMS7003;64830;46.910;6.354;2023-02-15T08:24:37;13.25;13.00;7.75
76101;PMS7003;64830;46.910;6.354;2023-02-15T08:27:03;13.75;12.25;9.00
76101;PMS7003;64830;46.910;6.354;2023-02-15T08:29:30;12.00;8.25;7.50
76101;PMS7003;64830;46.910;6.354;2023-02-15T08:31:57;16.50;13.00;9.00
76101;PMS7003;64830;46.910;6.354;2023-02-15T08:34:32;11.50;11.00;8.00
76101;PMS7003;64830;46.910;6.354;2023-02-15T08:37:02;12.25;12.25;8.50
76101;PMS7003;64830;46.910;6.354;2023-02-15T08:39:27;15.75;12.00;8.00
76101;PMS7003;64830;46.910;6.354;2023-02-15T08:41:53;13.00;13.00;8.75
76101;PMS7003;64830;46.910;6.354;2023-02-15T08:44:19;10.25;10.25;9.00
76101;PMS7003;64830;46.910;6.354;2023-02-15T08:46:46;11.25;9.75;8.00
76101;PMS7003;64830;46.910;6.354;2023-02-15T08:49:13;15.25;12.75;8.00
76101;PMS7003;64830;46.910;6.354;2023-02-15T08:51:41;15.00;12.50;8.00
76101;PMS7003;64830;46.910;6.354;2023-02-15T08:54:08;11.25;10.00;5.00
76101;PMS7003;64830;46.910;6.354;2023-02-15T08:56:36;13.25;11.50;8.50
76101;PMS7003;64830;46.910;6.354;2023-02-15T08:59:03;10.25;9.25;6.50
76101;PMS7003;64830;46.910;6.354;2023-02-15T09:01:30;14.50;13.00;9.00
76101;PMS7003;64830;46.910;6.354;2023-02-15T09:03:57;14.50;10.00;8.00
76101;PMS7003;64830;46.910;6.354;2023-02-15T09:06:25;9.00;9.00;8.00
76101;PMS7003;64830;46.910;6.354;2023-02-15T09:08:51;9.25;9.25;7.25
76101;PMS7003;64830;46.910;6.354;2023-02-15T09:11:20;13.00;10.00;7.25
76101;PMS7003;64830;46.910;6.354;2023-02-15T09:13:52;2.00;2.00;1.00
76101;PMS7003;64830;46.910;6.354;2023-02-15T09:16:18;14.00;13.50;9.75
76101;PMS7003;64830;46.910;6.354;2023-02-15T09:18:44;17.00;15.50;9.75
76101;PMS7003;64830;46.910;6.354;2023-02-15T09:21:13;13.75;10.50;7.25
76101;PMS7003;64830;46.910;6.354;2023-02-15T09:23:41;17.25;12.50;9.00
76101;PMS7003;64830;46.910;6.354;2023-02-15T09:26:09;9.75;6.75;6.00
76101;PMS7003;64830;46.910;6.354;2023-02-15T09:28:36;10.75;10.50;8.50
76101;PMS7003;64830;46.910;6.354;2023-02-15T09:31:06;11.50;10.00;6.50
76101;PMS7003;64830;46.910;6.354;2023-02-15T09:33:38;6.25;6.00;5.00
76101;PMS7003;64830;46.910;6.354;2023-02-15T09:36:04;10.00;9.50;7.00
76101;PMS7003;64830;46.910;6.354;2023-02-15T09:38:30;10.00;9.25;6.50
76101;PMS7003;64830;46.910;6.354;2023-02-15T09:43:30;16.25;14.50;10.00
76101;PMS7003;64830;46.910;6.354;2023-02-15T09:49:11;18.25;16.00;10.25
76101;PMS7003;64830;46.910;6.354;2023-02-15T09:57:16;17.75;16.25;12.00
76101;PMS7003;64830;46.910;6.354;2023-02-15T10:03:11;12.50;12.00;8.00
76101;PMS7003;64830;46.910;6.354;2023-02-15T10:27:54;12.50;10.25;7.00
76101;PMS7003;64830;46.910;6.354;2023-02-15T10:33:23;13.00;9.00;7.50
76101;PMS7003;64830;46.910;6.354;2023-02-15T10:38:33;13.50;13.50;8.00
76101;PMS7003;64830;46.910;6.354;2023-02-15T10:41:42;16.00;14.00;9.00
76101;PMS7003;64830;46.910;6.354;2023-02-15T11:06:06;8.50;8.50;5.00
76101;PMS7003;64830;46.910;6.354;2023-02-15T11:08:44;7.75;7.50;5.75
76101;PMS7003;64830;46.910;6.354;2023-02-15T11:11:20;10.25;8.50;6.25
76101;PMS7003;64830;46.910;6.354;2023-02-15T11:14:14;7.75;5.25;4.00
76101;PMS7003;64830;46.910;6.354;2023-02-15T11:16:46;9.50;5.00;4.25
76101;PMS7003;64830;46.910;6.354;2023-02-15T11:19:24;8.50;6.00;4.25
76101;PMS7003;64830;46.910;6.354;2023-02-15T11:22:04;5.50;5.00;3.75
76101;PMS7003;64830;46.910;6.354;2023-02-15T11:24:33;6.75;5.75;4.00
76101;PMS7003;64830;46.910;6.354;2023-02-15T11:27:16;4.00;4.00;3.00
76101;PMS7003;64830;46.910;6.354;2023-02-15T11:29:50;6.00;5.00;4.00
76101;PMS7003;64830;46.910;6.354;2023-02-15T11:32:37;4.00;3.00;2.25
76101;PMS7003;64830;46.910;6.354;2023-02-15T11:37:49;4.75;3.25;3.00
76101;PMS7003;64830;46.910;6.354;2023-02-15T11:40:32;6.00;5.00;3.75
76101;PMS7003;64830;46.910;6.354;2023-02-15T11:43:13;6.00;6.00;5.50
76101;PMS7003;64830;46.910;6.354;2023-02-15T11:45:45;6.00;4.00;3.00
76101;PMS7003;64830;46.910;6.354;2023-02-15T11:48:12;4.25;3.00;3.00
76101;PMS7003;64830;46.910;6.354;2023-02-15T11:50:39;2.00;1.00;1.00
76101;PMS7003;64830;46.910;6.354;2023-02-15T11:53:11;3.25;2.25;2.00
76101;PMS7003;64830;46.910;6.354;2023-02-15T11:55:38;2.00;2.00;1.25
76101;PMS7003;64830;46.910;6.354;2023-02-15T12:01:09;1.75;1.75;1.00
76101;PMS7003;64830;46.910;6.354;2023-02-15T12:06:27;3.00;2.50;2.00
76101;PMS7003;64830;46.910;6.354;2023-02-15T12:11:45;1.75;1.75;1.50
76101;PMS7003;64830;46.910;6.354;2023-02-15T12:14:11;3.00;3.00;2.50
76101;PMS7003;64830;46.910;6.354;2023-02-15T12:19:10;2.00;2.00;1.00
76101;PMS7003;64830;46.910;6.354;2023-02-15T12:21:58;2.50;2.50;2.25
76101;PMS7003;64830;46.910;6.354;2023-02-15T12:24:28;2.00;1.00;1.00
76101;PMS7003;64830;46.910;6.354;2023-02-15T12:27:02;2.00;2.00;2.00
76101;PMS7003;64830;46.910;6.354;2023-02-15T12:29:34;2.00;2.00;2.00
76101;PMS7003;64830;46.910;6.354;2023-02-15T12:32:09;4.00;3.00;3.00
76101;PMS7003;64830;46.910;6.354;2023-02-15T12:34:43;2.25;2.00;2.00
76101;PMS7003;64830;46.910;6.354;2023-02-15T12:37:17;4.00;4.00;3.00
76101;PMS7003;64830;46.910;6.354;2023-02-15T12:39:55;2.25;2.25;2.25
76101;PMS7003;64830;46.910;6.354;2023-02-15T12:42:23;7.00;5.00;3.00
76101;PMS7003;64830;46.910;6.354;2023-02-15T12:45:19;3.50;3.50;3.00
76101;PMS7003;64830;46.910;6.354;2023-02-15T12:47:45;6.50;5.75;4.00
76101;PMS7003;64830;46.910;6.354;2023-02-15T12:52:42;6.25;5.50;3.75
76101;PMS7003;64830;46.910;6.354;2023-02-15T12:55:20;4.50;3.25;3.00
76101;PMS7003;64830;46.910;6.354;2023-02-15T12:57:45;4.00;4.00;3.00
76101;PMS7003;64830;46.910;6.354;2023-02-15T13:02:44;3.00;3.00;2.00
76101;PMS7003;64830;46.910;6.354;2023-02-15T13:05:19;4.75;4.50;3.00
76101;PMS7003;64830;46.910;6.354;2023-02-15T13:07:56;6.00;6.00;4.75
76101;PMS7003;64830;46.910;6.354;2023-02-15T13:10:30;3.75;3.00;3.00
76101;PMS7003;64830;46.910;6.354;2023-02-15T13:13:00;4.00;4.00;3.00
76101;PMS7003;64830;46.910;6.354;2023-02-15T13:17:59;4.00;4.00;3.50
76101;PMS7003;64830;46.910;6.354;2023-02-15T13:20:26;5.00;1.00;1.00
76101;PMS7003;64830;46.910;6.354;2023-02-15T13:23:03;3.75;2.75;2.75
76101;PMS7003;64830;46.910;6.354;2023-02-15T13:25:41;3.00;3.00;2.25
76101;PMS7003;64830;46.910;6.354;2023-02-15T13:28:15;1.00;1.00;1.00
76101;PMS7003;64830;46.910;6.354;2023-02-15T13:30:44;2.75;1.50;1.25
76101;PMS7003;64830;46.910;6.354;2023-02-15T13:36:47;3.00;1.75;1.00
76101;PMS7003;64830;46.910;6.354;2023-02-15T13:47:21;2.25;2.25;2.25
76101;PMS7003;64830;46.910;6.354;2023-02-15T13:55:44;2.00;2.00;1.25
76101;PMS7003;64830;46.910;6.354;2023-02-15T13:58:31;2.00;2.00;2.00
76101;PMS7003;64830;46.910;6.354;2023-02-15T14:15:08;3.75;2.25;1.75
76101;PMS7003;64830;46.910;6.354;2023-02-15T14:17:52;2.00;2.00;2.00
76101;PMS7003;64830;46.910;6.354;2023-02-15T14:23:06;3.00;3.00;2.00
76101;PMS7003;64830;46.910;6.354;2023-02-15T14:25:50;4.00;3.00;2.25
76101;PMS7003;64830;46.910;6.354;2023-02-15T14:28:25;3.00;2.00;2.00
76101;PMS7003;64830;46.910;6.354;2023-02-15T14:30:58;3.00;2.25;2.00
76101;PMS7003;64830;46.910;6.354;2023-02-15T14:33:47;3.00;3.00;2.00
76101;PMS7003;64830;46.910;6.354;2023-02-15T14:36:15;3.00;3.00;2.75
76101;PMS7003;64830;46.910;6.354;2023-02-15T14:41:29;4.50;4.50;3.00
76101;PMS7003;64830;46.910;6.354;2023-02-15T14:49:37;10.00;6.00;5.00
76101;PMS7003;64830;46.910;6.354;2023-02-15T14:52:07;6.00;6.00;4.25
76101;PMS7003;64830;46.910;6.354;2023-02-15T15:02:26;9.50;8.00;6.00
76101;PMS7003;64830;46.910;6.354;2023-02-15T15:08:01;11.50;9.00;6.00
76101;PMS7003;64830;46.910;6.354;2023-02-15T15:13:34;10.25;10.00;8.25
76101;PMS7003;64830;46.910;6.354;2023-02-15T15:15:57;9.25;9.00;7.00
76101;PMS7003;64830;46.910;6.354;2023-02-15T15:18:53;10.50;10.00;8.00
76101;PMS7003;64830;46.910;6.354;2023-02-15T15:41:07;9.75;9.75;7.00
76101;PMS7003;64830;46.910;6.354;2023-02-15T15:49:30;9.25;8.50;6.00
76101;PMS7003;64830;46.910;6.354;2023-02-15T15:52:02;12.00;10.25;7.75
76101;PMS7003;64830;46.910;6.354;2023-02-15T15:54:36;12.25;11.50;7.75
76101;PMS7003;64830;46.910;6.354;2023-02-15T15:57:04;10.75;10.75;8.00
76101;PMS7003;64830;46.910;6.354;2023-02-15T15:59:36;10.25;10.00;8.75
76101;PMS7003;64830;46.910;6.354;2023-02-15T16:02:11;14.00;11.00;8.00
76101;PMS7003;64830;46.910;6.354;2023-02-15T16:04:41;10.25;10.00;7.00
76101;PMS7003;64830;46.910;6.354;2023-02-15T16:07:40;13.25;10.50;7.00
76101;PMS7003;64830;46.910;6.354;2023-02-15T16:12:25;10.25;10.00;8.00
76101;PMS7003;64830;46.910;6.354;2023-02-15T16:14:52;11.75;9.00;6.25
76101;PMS7003;64830;46.910;6.354;2023-02-15T16:17:22;15.00;13.00;10.00
76101;PMS7003;64830;46.910;6.354;2023-02-15T16:20:04;16.25;14.50;9.75
76101;PMS7003;64830;46.910;6.354;2023-02-15T16:22:54;14.00;12.50;9.00
76101;PMS7003;64830;46.910;6.354;2023-02-15T16:28:32;15.25;14.75;12.00
76101;PMS7003;64830;46.910;6.354;2023-02-15T16:31:05;18.50;16.00;11.00
76101;PMS7003;64830;46.910;6.354;2023-02-15T16:33:36;17.50;16.00;11.25
76101;PMS7003;64830;46.910;6.354;2023-02-15T16:36:03;16.25;16.25;11.25
76101;PMS7003;64830;46.910;6.354;2023-02-15T16:41:07;17.25;16.75;10.25
76101;PMS7003;64830;46.910;6.354;2023-02-15T16:43:37;19.00;17.50;14.00
76101;PMS7003;64830;46.910;6.354;2023-02-15T16:46:12;26.00;22.00;16.00
76101;PMS7003;64830;46.910;6.354;2023-02-15T16:48:46;19.25;16.00;13.00
76101;PMS7003;64830;46.910;6.354;2023-02-15T16:51:23;23.00;21.50;13.75
76101;PMS7003;64830;46.910;6.354;2023-02-15T16:53:51;23.50;21.50;16.50
76101;PMS7003;64830;46.910;6.354;2023-02-15T16:56:29;20.50;17.50;12.00
76101;PMS7003;64830;46.910;6.354;2023-02-15T16:58:55;17.00;17.00;14.00
76101;PMS7003;64830;46.910;6.354;2023-02-15T17:01:24;19.75;18.00;14.50
76101;PMS7003;64830;46.910;6.354;2023-02-15T17:06:38;30.75;28.25;20.50
76101;PMS7003;64830;46.910;6.354;2023-02-15T17:09:05;34.75;31.50;22.25
76101;PMS7003;64830;46.910;6.354;2023-02-15T17:11:42;28.75;27.25;19.25
76101;PMS7003;64830;46.910;6.354;2023-02-15T17:16:41;22.75;19.75;13.00
76101;PMS7003;64830;46.910;6.354;2023-02-15T17:19:18;19.75;18.50;14.25
76101;PMS7003;64830;46.910;6.354;2023-02-15T17:21:54;14.75;14.75;11.50
76101;PMS7003;64830;46.910;6.354;2023-02-15T17:26:54;21.00;21.00;12.75
76101;PMS7003;64830;46.910;6.354;2023-02-15T17:32:00;20.50;17.75;12.25
76101;PMS7003;64830;46.910;6.354;2023-02-15T17:34:43;20.25;16.75;13.25
76101;PMS7003;64830;46.910;6.354;2023-02-15T17:37:22;21.75;19.25;14.00
76101;PMS7003;64830;46.910;6.354;2023-02-15T17:39:54;20.00;17.75;14.25
76101;PMS7003;64830;46.910;6.354;2023-02-15T17:42:21;28.25;22.25;15.25
76101;PMS7003;64830;46.910;6.354;2023-02-15T17:44:47;24.50;23.75;15.00
76101;PMS7003;64830;46.910;6.354;2023-02-15T17:47:14;9.00;8.00;4.25
76101;PMS7003;64830;46.910;6.354;2023-02-15T17:49:43;18.75;17.25;12.00
76101;PMS7003;64830;46.910;6.354;2023-02-15T17:52:12;19.50;19.25;14.50
76101;PMS7003;64830;46.910;6.354;2023-02-15T17:54:39;15.50;14.75;11.75
76101;PMS7003;64830;46.910;6.354;2023-02-15T17:57:23;18.50;17.50;12.50
76101;PMS7003;64830;46.910;6.354;2023-02-15T17:59:50;21.50;19.25;12.25
76101;PMS7003;64830;46.910;6.354;2023-02-15T18:02:34;24.50;20.00;13.50
76101;PMS7003;64830;46.910;6.354;2023-02-15T18:05:18;27.25;25.00;15.75
76101;PMS7003;64830;46.910;6.354;2023-02-15T18:08:03;32.75;31.00;19.25
76101;PMS7003;64830;46.910;6.354;2023-02-15T18:10:48;38.00;29.00;17.75